Weather at Lime Village Airport

Public forecast

Using degrees Fahrenheit for public forecast. Weather courtesy of forecast.io.

Closest aviation weather report (METAR) to Lime Village Airport

Closest report is Sparrevohn LRRS Airport, 16.2 nm (30.0 km) SSW. Retrieved 2021/06/23 00:55 UTC (36 minutes ago):

PASV 230055Z AUTO VRB06KT 10SM SCT043 BKN060 16/06 A2979

Closest aviation forecast (TAF) to Lime Village Airport

Closest forecast is McGrath Airport, 95.8 nm (177.4 km) N. Retrieved 2021-06-23 00:33 UTC (58 minutes ago):

TAF PAMC 222331Z 2300/2324 16006KT P6SM VCTS FEW045CB BKN080 FM230300 24003KT P6SM BKN100